createdAt,value
2018-04-18T00:00:58.666Z,1022.85
2018-04-18T00:01:58.664Z,1022.82
2018-04-18T00:02:58.676Z,1022.83
2018-04-18T00:03:58.735Z,1022.88
2018-04-18T00:04:58.630Z,1022.91
2018-04-18T00:05:58.494Z,1022.89
2018-04-18T00:06:58.737Z,1022.90
2018-04-18T00:07:58.535Z,1022.92
2018-04-18T00:08:58.651Z,1022.92
2018-04-18T00:09:58.627Z,1022.93
2018-04-18T00:10:58.561Z,1022.93
2018-04-18T00:11:58.515Z,1022.96
2018-04-18T00:12:58.621Z,1022.95
2018-04-18T00:13:58.536Z,1022.94
2018-04-18T00:14:58.772Z,1022.97
2018-04-18T00:15:58.757Z,1022.95
2018-04-18T00:16:58.878Z,1022.98
2018-04-18T00:17:58.810Z,1023.00
2018-04-18T00:18:58.626Z,1023.02
2018-04-18T00:19:58.646Z,1023.05
2018-04-18T00:20:58.712Z,1023.03
2018-04-18T00:21:58.628Z,1023.03
2018-04-18T00:22:58.641Z,1023.06
2018-04-18T00:23:58.572Z,1023.11
2018-04-18T00:24:58.606Z,1023.07
2018-04-18T00:25:58.572Z,1023.09
2018-04-18T00:26:58.609Z,1023.12
2018-04-18T00:27:58.592Z,1023.10
2018-04-18T00:28:58.647Z,1023.10
2018-04-18T00:29:58.582Z,1023.13
2018-04-18T00:30:58.616Z,1023.14
2018-04-18T00:31:58.652Z,1023.17
2018-04-18T00:32:58.614Z,1023.17
2018-04-18T00:33:58.648Z,1023.13
2018-04-18T00:34:58.638Z,1023.18
2018-04-18T00:35:58.648Z,1023.16
2018-04-18T00:36:58.633Z,1023.16
2018-04-18T00:37:58.644Z,1023.15
2018-04-18T00:38:58.648Z,1023.19
2018-04-18T00:39:58.707Z,1023.21
2018-04-18T00:40:58.650Z,1023.20
2018-04-18T00:41:58.675Z,1023.18
2018-04-18T00:42:58.656Z,1023.21
2018-04-18T00:43:58.781Z,1023.22
2018-04-18T00:44:58.878Z,1023.23
2018-04-18T00:49:53.403Z,1023.22
2018-04-18T00:50:32.146Z,1023.24
2018-04-18T00:51:32.255Z,1023.25
2018-04-18T00:52:31.619Z,1023.23
2018-04-18T00:53:31.637Z,1023.29
2018-04-18T00:54:32.249Z,1023.31
2018-04-18T00:55:32.237Z,1023.32
2018-04-18T00:56:31.802Z,1023.31
2018-04-18T00:57:31.748Z,1023.29
2018-04-18T00:58:31.747Z,1023.29
2018-04-18T00:59:31.825Z,1023.28
2018-04-18T01:00:31.598Z,1023.27
2018-04-18T01:01:31.760Z,1023.31
2018-04-18T01:02:31.690Z,1023.29
2018-04-18T01:03:31.613Z,1023.32
2018-04-18T01:04:31.752Z,1023.32
2018-04-18T01:05:32.156Z,1023.31
2018-04-18T01:06:31.662Z,1023.28
2018-04-18T01:07:31.871Z,1023.29
2018-04-18T01:08:31.737Z,1023.26
2018-04-18T01:09:31.717Z,1023.32
2018-04-18T01:10:32.144Z,1023.28
2018-04-18T01:11:31.850Z,1023.32
2018-04-18T01:12:31.612Z,1023.30
2018-04-18T01:13:31.645Z,1023.33
2018-04-18T01:14:31.759Z,1023.32
2018-04-18T01:15:31.677Z,1023.39
2018-04-18T01:16:31.759Z,1023.39
2018-04-18T01:17:31.694Z,1023.38
2018-04-18T01:18:31.757Z,1023.39
2018-04-18T01:19:31.774Z,1023.39
2018-04-18T01:20:31.834Z,1023.38
2018-04-18T01:21:31.707Z,1023.38
2018-04-18T01:22:31.774Z,1023.36
2018-04-18T01:23:31.794Z,1023.37
2018-04-18T01:24:31.720Z,1023.32
2018-04-18T01:25:31.727Z,1023.35
2018-04-18T01:26:31.695Z,1023.30
2018-04-18T01:27:31.818Z,1023.27
2018-04-18T01:28:31.821Z,1023.33
2018-04-18T01:29:31.785Z,1023.32
2018-04-18T01:30:31.680Z,1023.33
2018-04-18T01:31:31.842Z,1023.36
2018-04-18T01:32:31.739Z,1023.33
2018-04-18T01:33:31.779Z,1023.37
2018-04-18T01:34:31.709Z,1023.34
2018-04-18T01:35:31.833Z,1023.38
2018-04-18T01:36:31.830Z,1023.39
2018-04-18T01:37:31.756Z,1023.40
2018-04-18T01:38:31.855Z,1023.39
2018-04-18T01:39:31.811Z,1023.41
2018-04-18T01:40:31.756Z,1023.38
2018-04-18T01:41:31.758Z,1023.41
2018-04-18T01:42:31.873Z,1023.41
2018-04-18T01:43:31.851Z,1023.44
2018-04-18T01:44:31.729Z,1023.40
2018-04-18T01:45:31.826Z,1023.42
2018-04-18T01:46:32.156Z,1023.43
2018-04-18T01:47:31.761Z,1023.47
2018-04-18T01:48:31.829Z,1023.47
2018-04-18T01:49:31.801Z,1023.46
2018-04-18T01:50:32.014Z,1023.43
2018-04-18T01:51:31.790Z,1023.47
2018-04-18T01:52:31.936Z,1023.49
2018-04-18T01:53:31.843Z,1023.49
2018-04-18T01:54:31.768Z,1023.51
2018-04-18T01:55:31.846Z,1023.53
2018-04-18T01:56:31.981Z,1023.53
2018-04-18T01:57:31.799Z,1023.53
2018-04-18T01:58:31.727Z,1023.56
2018-04-18T01:59:31.780Z,1023.57
2018-04-18T02:00:31.798Z,1023.58
2018-04-18T02:01:31.747Z,1023.59
2018-04-18T02:02:31.812Z,1023.60
2018-04-18T02:03:31.768Z,1023.63
2018-04-18T02:04:31.752Z,1023.62
2018-04-18T02:05:31.732Z,1023.61
2018-04-18T02:06:31.788Z,1023.66
2018-04-18T02:07:31.735Z,1023.61
2018-04-18T02:08:31.768Z,1023.64
2018-04-18T02:09:31.807Z,1023.59
2018-04-18T02:10:31.759Z,1023.64
2018-04-18T02:11:31.797Z,1023.62
2018-04-18T02:12:31.838Z,1023.63
2018-04-18T02:13:31.831Z,1023.67
2018-04-18T02:14:31.827Z,1023.65
2018-04-18T02:15:31.781Z,1023.66
2018-04-18T02:16:31.898Z,1023.66
2018-04-18T02:17:31.915Z,1023.68
2018-04-18T02:18:31.817Z,1023.67
2018-04-18T02:19:31.877Z,1023.68
2018-04-18T02:20:31.933Z,1023.66
2018-04-18T02:21:31.895Z,1023.70
2018-04-18T02:22:31.903Z,1023.68
2018-04-18T02:23:31.898Z,1023.70
2018-04-18T02:24:31.882Z,1023.74
2018-04-18T02:25:31.916Z,1023.74
2018-04-18T02:26:32.031Z,1023.74
2018-04-18T02:27:31.923Z,1023.74
2018-04-18T02:28:32.664Z,1023.74
2018-04-18T02:29:31.824Z,1023.75
2018-04-18T02:30:31.859Z,1023.81
2018-04-18T02:31:31.858Z,1023.78
2018-04-18T02:32:31.869Z,1023.80
2018-04-18T02:33:31.952Z,1023.77
2018-04-18T02:34:31.924Z,1023.78
2018-04-18T02:35:31.919Z,1023.80
2018-04-18T02:36:32.059Z,1023.81
2018-04-18T02:37:31.881Z,1023.81
2018-04-18T02:38:31.880Z,1023.82
2018-04-18T02:39:31.855Z,1023.81
2018-04-18T02:40:31.900Z,1023.83
2018-04-18T02:41:31.868Z,1023.81
2018-04-18T02:42:32.053Z,1023.84
2018-04-18T02:43:32.670Z,1023.85
2018-04-18T02:44:32.077Z,1023.84
2018-04-18T02:45:31.860Z,1023.83
2018-04-18T02:46:31.927Z,1023.88
2018-04-18T02:47:31.825Z,1023.89
2018-04-18T02:48:32.004Z,1023.87
2018-04-18T02:49:31.910Z,1023.89
2018-04-18T02:50:31.922Z,1023.89
2018-04-18T02:51:31.861Z,1023.90
2018-04-18T02:52:31.836Z,1023.93
2018-04-18T02:53:31.921Z,1023.94
2018-04-18T02:54:31.953Z,1023.96
2018-04-18T02:55:31.863Z,1023.97
2018-04-18T02:56:31.839Z,1023.93
2018-04-18T02:57:31.849Z,1023.95
2018-04-18T02:58:31.883Z,1023.95
2018-04-18T02:59:31.956Z,1024.01
2018-04-18T03:00:31.863Z,1024.01
2018-04-18T03:01:31.907Z,1024.01
2018-04-18T03:02:31.924Z,1024.01
2018-04-18T03:03:31.953Z,1024.03
2018-04-18T03:04:31.986Z,1024.02
2018-04-18T03:05:31.901Z,1024.07
2018-04-18T03:06:31.883Z,1024.06
2018-04-18T03:07:31.934Z,1024.05
2018-04-18T03:08:31.849Z,1024.09
2018-04-18T03:09:31.928Z,1024.07
2018-04-18T03:10:31.929Z,1024.10
2018-04-18T03:11:31.877Z,1024.11
2018-04-18T03:12:31.904Z,1024.16
2018-04-18T03:13:31.976Z,1024.20
2018-04-18T03:14:31.990Z,1024.17
2018-04-18T03:15:32.004Z,1024.21
2018-04-18T03:16:32.061Z,1024.17
2018-04-18T03:17:31.985Z,1024.20
2018-04-18T03:18:31.933Z,1024.17
2018-04-18T03:19:31.967Z,1024.20
2018-04-18T03:20:31.952Z,1024.21
2018-04-18T03:21:31.922Z,1024.19
2018-04-18T03:22:31.951Z,1024.18
2018-04-18T03:23:31.930Z,1024.17
2018-04-18T03:24:32.683Z,1024.22
2018-04-18T03:25:31.891Z,1024.21
2018-04-18T03:26:32.203Z,1024.21
2018-04-18T03:27:31.975Z,1024.21
2018-04-18T03:28:31.950Z,1024.25
2018-04-18T03:29:32.046Z,1024.26
2018-04-18T03:30:31.968Z,1024.27
2018-04-18T03:31:32.003Z,1024.27
2018-04-18T03:32:31.967Z,1024.23
2018-04-18T03:33:31.944Z,1024.27
2018-04-18T03:34:31.943Z,1024.24
2018-04-18T03:35:31.989Z,1024.29
2018-04-18T03:36:31.998Z,1024.28
2018-04-18T03:37:31.941Z,1024.31
2018-04-18T03:38:32.023Z,1024.33
2018-04-18T03:39:31.967Z,1024.33
2018-04-18T03:40:31.963Z,1024.32
2018-04-18T03:41:31.970Z,1024.34
2018-04-18T03:42:32.103Z,1024.35
2018-04-18T03:43:31.996Z,1024.35
2018-04-18T03:44:32.049Z,1024.36
2018-04-18T03:45:31.995Z,1024.39
2018-04-18T03:46:31.966Z,1024.37
2018-04-18T03:47:32.195Z,1024.37
2018-04-18T03:48:32.108Z,1024.39
2018-04-18T03:49:32.134Z,1024.38
2018-04-18T03:50:32.267Z,1024.37
2018-04-18T03:51:32.025Z,1024.38
2018-04-18T03:52:32.130Z,1024.40
2018-04-18T03:53:31.963Z,1024.43
2018-04-18T03:54:31.965Z,1024.47
2018-04-18T03:55:32.162Z,1024.43
2018-04-18T03:56:32.024Z,1024.48
2018-04-18T03:57:32.073Z,1024.46
2018-04-18T03:58:32.011Z,1024.49
2018-04-18T03:59:32.058Z,1024.47
2018-04-18T04:00:32.273Z,1024.50
2018-04-18T04:01:32.162Z,1024.53
2018-04-18T04:02:32.087Z,1024.51
2018-04-18T04:03:32.170Z,1024.55
2018-04-18T04:04:32.016Z,1024.52
2018-04-18T04:05:32.101Z,1024.52
2018-04-18T04:06:32.110Z,1024.50
2018-04-18T04:07:32.300Z,1024.51
2018-04-18T04:08:32.698Z,1024.49
2018-04-18T04:09:32.135Z,1024.52
2018-04-18T04:10:32.075Z,1024.54
2018-04-18T04:11:32.270Z,1024.54
2018-04-18T04:12:32.241Z,1024.54
2018-04-18T04:13:32.133Z,1024.60
2018-04-18T04:14:32.118Z,1024.61
2018-04-18T04:15:32.101Z,1024.62
2018-04-18T04:16:32.130Z,1024.59
2018-04-18T04:17:32.144Z,1024.59
2018-04-18T04:18:32.131Z,1024.62
2018-04-18T04:19:32.084Z,1024.63
2018-04-18T04:20:32.120Z,1024.63
2018-04-18T04:21:32.009Z,1024.62
2018-04-18T04:22:32.094Z,1024.63
2018-04-18T04:23:32.049Z,1024.64
2018-04-18T04:24:32.085Z,1024.65
2018-04-18T04:25:32.109Z,1024.61
2018-04-18T04:26:32.202Z,1024.66
2018-04-18T04:27:32.118Z,1024.66
2018-04-18T04:28:32.088Z,1024.67
2018-04-18T04:29:32.134Z,1024.69
2018-04-18T04:30:32.155Z,1024.69
2018-04-18T04:31:32.175Z,1024.69
2018-04-18T04:32:32.193Z,1024.69
2018-04-18T04:33:32.217Z,1024.71
2018-04-18T04:34:32.293Z,1024.71
2018-04-18T04:35:32.252Z,1024.71
2018-04-18T04:36:32.256Z,1024.70
2018-04-18T04:37:32.186Z,1024.78
2018-04-18T04:38:32.307Z,1024.77
2018-04-18T04:39:32.204Z,1024.77
2018-04-18T04:40:32.169Z,1024.82
2018-04-18T04:41:32.247Z,1024.84
2018-04-18T04:42:32.165Z,1024.85
2018-04-18T04:43:32.342Z,1024.85
2018-04-18T04:44:32.216Z,1024.88
2018-04-18T04:45:32.151Z,1024.89
2018-04-18T04:46:32.467Z,1024.90
2018-04-18T04:47:32.192Z,1024.90
2018-04-18T04:48:32.094Z,1024.89
2018-04-18T04:49:32.200Z,1024.92
2018-04-18T04:50:32.212Z,1024.89
2018-04-18T04:51:32.204Z,1024.91
2018-04-18T04:52:32.233Z,1024.92
2018-04-18T04:53:32.165Z,1024.95
2018-04-18T04:54:32.317Z,1024.96
2018-04-18T04:55:32.179Z,1024.97
2018-04-18T04:56:32.132Z,1024.98
2018-04-18T04:57:32.237Z,1024.92
2018-04-18T04:58:32.151Z,1024.98
2018-04-18T04:59:32.545Z,1024.98
2018-04-18T05:00:32.284Z,1025.00
2018-04-18T05:01:32.153Z,1025.01
2018-04-18T05:02:32.255Z,1025.02
2018-04-18T05:03:32.694Z,1025.02
2018-04-18T05:04:32.208Z,1025.06
2018-04-18T05:05:32.133Z,1025.07
2018-04-18T05:06:32.185Z,1025.05
2018-04-18T05:07:32.138Z,1025.08
2018-04-18T05:08:32.208Z,1025.07
2018-04-18T05:09:32.141Z,1025.12
2018-04-18T05:10:32.316Z,1025.16
2018-04-18T05:11:32.168Z,1025.16
2018-04-18T05:12:32.252Z,1025.15
2018-04-18T05:13:32.277Z,1025.17
2018-04-18T05:14:32.239Z,1025.17
2018-04-18T05:15:32.188Z,1025.19
2018-04-18T05:16:32.295Z,1025.17
2018-04-18T05:17:32.274Z,1025.20
2018-04-18T05:18:32.366Z,1025.21
2018-04-18T05:19:32.375Z,1025.24
2018-04-18T05:20:32.246Z,1025.28
2018-04-18T05:21:32.298Z,1025.30
2018-04-18T05:22:32.195Z,1025.33
2018-04-18T05:23:32.259Z,1025.32
2018-04-18T05:24:32.246Z,1025.34
2018-04-18T05:25:32.198Z,1025.35
2018-04-18T05:26:32.223Z,1025.37
2018-04-18T05:27:32.238Z,1025.39
2018-04-18T05:28:32.280Z,1025.46
2018-04-18T05:29:32.344Z,1025.50
2018-04-18T05:30:32.877Z,1025.48
2018-04-18T05:31:32.259Z,1025.52
2018-04-18T05:32:32.218Z,1025.54
2018-04-18T05:33:32.305Z,1025.59
2018-04-18T05:34:32.245Z,1025.62
2018-04-18T05:35:32.295Z,1025.68
2018-04-18T05:36:32.235Z,1025.68
2018-04-18T05:37:32.234Z,1025.71
2018-04-18T05:38:32.281Z,1025.76
2018-04-18T05:39:32.226Z,1025.75
2018-04-18T05:40:32.244Z,1025.82
2018-04-18T05:41:32.269Z,1025.82
2018-04-18T05:42:32.231Z,1025.86
2018-04-18T05:43:32.295Z,1025.91
2018-04-18T05:44:32.343Z,1025.94
2018-04-18T05:45:32.179Z,1025.95
2018-04-18T05:46:32.207Z,1026.00
2018-04-18T05:47:32.261Z,1025.99
2018-04-18T05:48:32.280Z,1026.01
2018-04-18T05:49:32.418Z,1026.02
2018-04-18T05:50:32.613Z,1026.05
2018-04-18T05:51:32.890Z,1026.09
2018-04-18T05:52:32.738Z,1026.14
2018-04-18T05:53:33.089Z,1026.15
2018-04-18T05:54:32.539Z,1026.19
2018-04-18T05:55:32.496Z,1026.19
2018-04-18T05:56:33.180Z,1026.26
2018-04-18T05:57:33.197Z,1026.27
2018-04-18T05:58:33.238Z,1026.35
2018-04-18T05:59:32.233Z,1026.33
2018-04-18T06:00:32.567Z,1026.37
2018-04-18T06:01:32.728Z,1026.44
2018-04-18T06:02:34.388Z,1026.38
2018-04-18T06:03:32.545Z,1026.46
2018-04-18T06:04:32.513Z,1026.52
2018-04-18T06:05:32.534Z,1026.57
2018-04-18T06:06:32.540Z,1026.64
2018-04-18T06:07:32.325Z,1026.68
2018-04-18T06:08:32.425Z,1026.81
2018-04-18T06:09:32.380Z,1027.05
2018-04-18T06:10:32.547Z,1027.37
2018-04-18T06:11:32.559Z,1027.74
2018-04-18T06:12:32.357Z,1028.11
2018-04-18T06:13:32.377Z,1028.41
2018-04-18T06:14:32.415Z,1028.48
2018-04-18T06:15:32.488Z,1027.74
2018-04-18T06:16:32.533Z,1026.76
2018-04-18T06:17:32.380Z,1030.22
2018-04-18T06:18:33.142Z,1033.77
2018-04-18T06:19:32.433Z,1032.58
2018-04-18T06:20:32.562Z,1030.35
2018-04-18T06:21:37.392Z,1029.33
2018-04-18T06:22:32.663Z,1029.01
2018-04-18T06:23:35.081Z,1028.92
2018-04-18T06:24:32.812Z,1028.83
2018-04-18T06:25:32.493Z,1028.71
2018-04-18T06:26:35.023Z,1028.70
2018-04-18T06:27:34.213Z,1028.71
2018-04-18T06:28:32.516Z,1028.50
2018-04-18T06:29:32.659Z,1028.19
2018-04-18T06:30:32.431Z,1028.07
2018-04-18T06:31:35.756Z,1028.09
2018-04-18T06:32:36.486Z,1028.43
2018-04-18T06:33:34.158Z,1028.61
2018-04-18T06:34:39.514Z,1028.36
2018-04-18T06:35:35.130Z,1028.20
2018-04-18T06:37:33.252Z,1028.20
2018-04-18T06:38:32.686Z,1028.24
2018-04-18T06:39:34.846Z,1028.25
2018-04-18T06:40:33.251Z,1028.18
2018-04-18T06:41:32.648Z,1028.30
2018-04-18T06:42:32.969Z,1028.33
2018-04-18T06:43:32.716Z,1028.21
2018-04-18T06:44:36.298Z,1028.21
2018-04-18T06:45:35.647Z,1028.23
2018-04-18T06:46:32.811Z,1028.30
2018-04-18T06:47:32.846Z,1028.43
2018-04-18T06:48:35.764Z,1028.63
2018-04-18T06:49:33.010Z,1028.82
2018-04-18T06:50:35.848Z,1028.64
2018-04-18T06:51:33.566Z,1028.42
2018-04-18T06:52:34.727Z,1028.41
2018-04-18T06:53:33.682Z,1028.62
2018-04-18T06:54:32.848Z,1028.71
2018-04-18T06:55:33.388Z,1028.80
2018-04-18T06:56:32.698Z,1028.87
2018-04-18T06:57:33.093Z,1028.91
2018-04-18T06:58:39.832Z,1029.06
2018-04-18T06:59:36.127Z,1028.92
2018-04-18T07:00:39.914Z,1028.86
2018-04-18T07:01:36.293Z,1028.96
2018-04-18T07:03:35.771Z,1029.56
2018-04-18T07:05:33.052Z,1029.49
2018-04-18T07:06:41.318Z,1029.39
2018-04-18T07:07:33.820Z,1029.50
2018-04-18T07:08:38.367Z,1030.09
2018-04-18T07:09:48.682Z,1030.34
2018-04-18T07:11:33.815Z,1030.92
2018-04-18T07:13:36.720Z,1032.05
2018-04-18T07:14:35.652Z,1031.41
2018-04-18T07:15:33.337Z,1030.22
2018-04-18T07:16:33.152Z,1029.23
2018-04-18T07:17:32.906Z,1028.66
2018-04-18T07:18:32.980Z,1028.50
2018-04-18T07:19:35.944Z,1028.44
2018-04-18T07:20:33.104Z,1028.45
2018-04-18T07:21:34.754Z,1028.43
2018-04-18T07:22:36.563Z,1028.40
2018-04-18T07:23:37.652Z,1028.39
2018-04-18T07:26:54.223Z,1028.79
2018-04-18T07:30:06.258Z,1029.56
2018-04-18T07:31:06.159Z,1029.53
2018-04-18T07:32:07.025Z,1029.39
2018-04-18T07:33:06.216Z,1029.38
2018-04-18T07:34:06.161Z,1029.52
2018-04-18T07:35:06.215Z,1029.60
2018-04-18T07:36:06.176Z,1029.51
2018-04-18T07:37:06.211Z,1029.41
2018-04-18T07:38:06.225Z,1029.47
2018-04-18T07:39:06.222Z,1029.57
2018-04-18T07:40:06.289Z,1029.62
2018-04-18T07:41:06.283Z,1029.66
2018-04-18T07:42:07.692Z,1029.60
2018-04-18T07:43:06.328Z,1029.66
2018-04-18T07:44:06.357Z,1029.81
2018-04-18T07:45:07.049Z,1029.83
2018-04-18T07:46:06.341Z,1029.81
2018-04-18T07:47:06.412Z,1029.86
2018-04-18T07:48:06.384Z,1029.96
2018-04-18T07:49:06.368Z,1030.16
2018-04-18T07:50:06.383Z,1030.32
2018-04-18T07:51:06.476Z,1030.35
2018-04-18T07:52:06.425Z,1030.55
2018-04-18T07:53:06.417Z,1030.74
2018-04-18T07:54:06.470Z,1030.69
2018-04-18T07:55:06.468Z,1030.80
2018-04-18T07:56:06.461Z,1031.12
2018-04-18T07:57:06.532Z,1031.61
2018-04-18T07:58:07.543Z,1031.76
2018-04-18T07:59:06.583Z,1031.99
2018-04-18T08:00:06.537Z,1032.23
2018-04-18T08:01:06.570Z,1032.50
2018-04-18T08:02:06.551Z,1032.95
2018-04-18T08:03:06.624Z,1033.20
2018-04-18T08:04:07.009Z,1033.18
2018-04-18T08:05:07.559Z,1032.86
2018-04-18T08:06:06.675Z,1033.39
2018-04-18T08:07:06.651Z,1034.34
2018-04-18T08:08:07.554Z,1034.21
2018-04-18T08:09:07.320Z,1034.35
2018-04-18T08:10:06.994Z,1035.06
2018-04-18T08:11:06.787Z,1035.18
2018-04-18T08:12:07.555Z,1035.27
2018-04-18T08:13:06.780Z,1035.55
2018-04-18T08:14:06.815Z,1035.87
2018-04-18T08:15:06.794Z,1035.41
2018-04-18T08:16:06.827Z,1035.37
2018-04-18T08:17:06.822Z,1036.27
2018-04-18T08:18:06.820Z,1036.88
2018-04-18T08:19:06.869Z,1036.75
2018-04-18T08:20:07.573Z,1036.21
2018-04-18T08:21:06.898Z,1036.67
2018-04-18T08:22:06.948Z,1037.75
2018-04-18T08:23:06.926Z,1038.16
2018-04-18T08:24:06.980Z,1038.57
2018-04-18T08:25:07.078Z,1038.61
2018-04-18T08:26:07.011Z,1038.61
2018-04-18T08:27:07.000Z,1038.66
2018-04-18T08:28:07.008Z,1039.08
2018-04-18T08:29:07.002Z,1038.60
2018-04-18T08:30:07.081Z,1038.02
2018-04-18T08:31:07.045Z,1038.07
2018-04-18T08:32:07.087Z,1038.67
2018-04-18T08:33:07.082Z,1039.08
2018-04-18T08:34:07.117Z,1039.84
2018-04-18T08:35:07.128Z,1040.63
2018-04-18T08:36:07.179Z,1040.72
2018-04-18T08:37:07.167Z,1040.36
2018-04-18T08:38:07.186Z,1039.46
2018-04-18T08:39:08.073Z,1038.93
2018-04-18T08:40:07.701Z,1039.19
2018-04-18T08:41:07.343Z,1038.19
2018-04-18T08:42:07.269Z,1036.64
2018-04-18T08:43:07.291Z,1036.52
2018-04-18T08:44:07.359Z,1036.87
2018-04-18T08:45:07.327Z,1037.72
2018-04-18T08:46:07.321Z,1037.52
2018-04-18T08:47:08.122Z,1037.80
2018-04-18T08:48:07.403Z,1038.02
2018-04-18T08:49:07.569Z,1037.87
2018-04-18T08:50:07.408Z,1036.83
2018-04-18T08:51:07.444Z,1038.02
2018-04-18T08:52:07.477Z,1037.78
2018-04-18T08:53:08.085Z,1035.80
2018-04-18T08:54:07.459Z,1036.86
2018-04-18T08:55:07.502Z,1037.09
2018-04-18T08:56:08.386Z,1038.19
2018-04-18T08:57:07.567Z,1040.24
2018-04-18T08:58:08.527Z,1038.13
2018-04-18T08:59:07.628Z,1033.40
2018-04-18T09:00:07.651Z,1029.97
2018-04-18T09:01:07.690Z,1029.68
2018-04-18T09:02:07.847Z,1029.51
2018-04-18T09:03:07.677Z,1029.46
2018-04-18T09:04:08.133Z,1029.41
2018-04-18T09:05:07.815Z,1029.33
2018-04-18T09:06:07.730Z,1029.28
2018-04-18T09:07:07.958Z,1029.28
2018-04-18T09:08:07.738Z,1029.24
2018-04-18T09:09:08.592Z,1029.28
2018-04-18T09:10:07.780Z,1029.32
2018-04-18T09:11:07.814Z,1029.25
2018-04-18T09:12:07.947Z,1029.26
2018-04-18T09:13:07.859Z,1029.34
2018-04-18T09:14:07.874Z,1029.38
2018-04-18T09:15:08.603Z,1029.44
2018-04-18T09:16:07.957Z,1029.55
2018-04-18T09:17:07.986Z,1030.42
2018-04-18T09:18:07.937Z,1033.35
2018-04-18T09:19:08.035Z,1034.76
2018-04-18T09:20:08.014Z,1033.61
2018-04-18T09:21:08.012Z,1032.60
2018-04-18T09:22:08.182Z,1032.06
2018-04-18T09:23:08.032Z,1032.01
2018-04-18T09:24:08.968Z,1031.91
2018-04-18T09:25:08.183Z,1031.40
2018-04-18T09:26:08.134Z,1031.09
2018-04-18T09:27:08.147Z,1031.22
2018-04-18T09:28:08.150Z,1031.10
2018-04-18T09:29:08.188Z,1030.71
2018-04-18T09:30:08.182Z,1030.61
2018-04-18T09:31:08.282Z,1030.40
2018-04-18T09:32:09.124Z,1030.19
2018-04-18T09:33:08.253Z,1030.12
2018-04-18T09:34:08.364Z,1030.12
2018-04-18T09:35:08.287Z,1030.05
2018-04-18T09:36:08.402Z,1029.84
2018-04-18T09:37:08.365Z,1029.75
2018-04-18T09:38:08.366Z,1029.62
2018-04-18T09:39:08.435Z,1029.46
2018-04-18T09:40:08.401Z,1029.39
2018-04-18T09:41:08.453Z,1029.38
2018-04-18T09:42:08.526Z,1029.28
2018-04-18T09:43:08.462Z,1029.19
2018-04-18T09:44:08.521Z,1029.17
2018-04-18T09:45:08.508Z,1029.20
2018-04-18T09:46:08.546Z,1029.31
2018-04-18T09:47:08.630Z,1029.28
2018-04-18T09:48:08.610Z,1029.32
2018-04-18T09:49:08.637Z,1029.31
2018-04-18T09:50:08.653Z,1029.27
2018-04-18T09:51:08.716Z,1029.41
2018-04-18T09:52:08.668Z,1029.57
2018-04-18T09:53:08.698Z,1029.57
2018-04-18T09:54:08.712Z,1029.71
2018-04-18T09:55:08.740Z,1029.77
2018-04-18T09:56:08.758Z,1029.85
2018-04-18T09:57:09.038Z,1029.85
2018-04-18T09:58:08.807Z,1029.86
2018-04-18T09:59:08.881Z,1030.04
2018-04-18T10:00:08.853Z,1030.09
2018-04-18T10:01:08.887Z,1029.86
2018-04-18T10:02:08.891Z,1029.99
2018-04-18T10:03:09.007Z,1030.15
2018-04-18T10:04:09.629Z,1030.38
2018-04-18T10:05:08.963Z,1030.53
2018-04-18T10:10:48.531Z,1029.98
2018-04-18T10:11:46.533Z,1029.86
2018-04-18T10:12:46.533Z,1029.54
2018-04-18T10:13:46.538Z,1029.20
2018-04-18T10:14:45.640Z,1029.02
2018-04-18T10:15:45.663Z,1028.85
2018-04-18T10:16:45.705Z,1028.76
2018-04-18T10:17:45.700Z,1028.58
2018-04-18T10:18:45.715Z,1028.49
2018-04-18T10:19:45.752Z,1028.38
2018-04-18T10:20:45.779Z,1028.34
2018-04-18T10:21:45.855Z,1028.40
2018-04-18T10:22:45.837Z,1028.39
2018-04-18T10:23:45.851Z,1028.35
2018-04-18T10:24:45.871Z,1028.27
2018-04-18T10:25:45.880Z,1028.28
2018-04-18T10:26:45.953Z,1028.32
2018-04-18T10:27:45.935Z,1028.29
2018-04-18T10:28:46.540Z,1028.29
2018-04-18T10:31:01.547Z,1028.35
2018-04-18T10:31:46.019Z,1028.36
2018-04-18T10:32:46.043Z,1028.30
2018-04-18T10:33:46.059Z,1028.27
2018-04-18T10:34:46.098Z,1028.23
2018-04-18T10:35:46.133Z,1028.26
2018-04-18T10:36:46.131Z,1028.23
2018-04-18T10:37:46.181Z,1028.25
2018-04-18T10:38:46.201Z,1028.24
2018-04-18T10:39:46.229Z,1028.23
2018-04-18T10:40:46.234Z,1028.23
2018-04-18T10:41:46.278Z,1028.25
2018-04-18T10:42:46.277Z,1028.24
2018-04-18T10:43:46.291Z,1028.15
2018-04-18T10:44:46.313Z,1028.14
2018-04-18T10:45:46.514Z,1028.16
2018-04-18T10:46:46.357Z,1028.10
2018-04-18T10:47:46.383Z,1028.11
2018-04-18T10:48:46.417Z,1027.99
2018-04-18T10:49:46.434Z,1027.90
2018-04-18T10:50:46.470Z,1027.90
2018-04-18T10:51:46.512Z,1027.92
2018-04-18T10:52:46.523Z,1027.97
2018-04-18T10:53:46.527Z,1027.92
2018-04-18T10:54:46.555Z,1027.95
2018-04-18T10:55:46.570Z,1027.99
2018-04-18T10:56:46.601Z,1027.90
2018-04-18T10:57:46.631Z,1027.89
2018-04-18T10:58:46.659Z,1027.87
2018-04-18T10:59:46.681Z,1027.84
2018-04-18T11:00:46.691Z,1027.81
2018-04-18T11:01:46.693Z,1027.62
2018-04-18T11:02:46.758Z,1027.42
2018-04-18T11:05:18.934Z,1027.07
2018-04-18T11:06:18.919Z,1027.06
2018-04-18T11:07:18.939Z,1027.03
2018-04-18T11:08:19.008Z,1027.03
2018-04-18T11:09:18.981Z,1026.97
2018-04-18T11:10:18.982Z,1026.94
2018-04-18T11:11:19.040Z,1026.96
2018-04-18T11:12:19.033Z,1026.97
2018-04-18T11:13:19.123Z,1026.99
2018-04-18T11:14:19.096Z,1026.96
2018-04-18T11:15:19.116Z,1026.95
2018-04-18T11:16:19.137Z,1026.91
2018-04-18T11:17:19.110Z,1026.89
2018-04-18T11:18:19.207Z,1026.95
2018-04-18T11:19:19.168Z,1026.92
2018-04-18T11:20:19.210Z,1026.94
2018-04-18T11:21:19.268Z,1026.92
2018-04-18T11:22:19.223Z,1026.93
2018-04-18T11:23:19.246Z,1026.90
2018-04-18T11:24:19.272Z,1026.87
2018-04-18T11:25:19.276Z,1026.95
2018-04-18T11:26:19.257Z,1026.90
2018-04-18T11:27:19.288Z,1026.89
2018-04-18T11:28:19.318Z,1026.89
2018-04-18T11:29:19.425Z,1026.86
2018-04-18T11:30:19.331Z,1026.84
2018-04-18T11:31:19.324Z,1026.81
2018-04-18T11:32:19.338Z,1026.80
2018-04-18T11:33:19.357Z,1026.79
2018-04-18T11:34:19.384Z,1026.75
2018-04-18T11:35:19.372Z,1026.74
2018-04-18T11:36:19.407Z,1026.70
2018-04-18T11:37:19.426Z,1026.71
2018-04-18T11:38:19.469Z,1026.77
2018-04-18T11:39:19.427Z,1026.67
2018-04-18T11:40:19.620Z,1026.73
2018-04-18T11:41:19.580Z,1026.70
2018-04-18T11:42:20.376Z,1026.68
2018-04-18T11:43:19.622Z,1026.66
2018-04-18T11:44:19.500Z,1026.67
2018-04-18T11:45:19.764Z,1026.72
2018-04-18T11:46:19.618Z,1026.67
2018-04-18T11:47:49.878Z,1026.70
2018-04-18T11:48:21.394Z,1026.69
2018-04-18T11:49:20.366Z,1026.69
2018-04-18T11:50:19.612Z,1026.63
2018-04-18T11:51:19.665Z,1026.64
2018-04-18T11:52:19.683Z,1026.64
2018-04-18T11:53:19.792Z,1026.66
2018-04-18T11:54:19.624Z,1026.69
2018-04-18T11:55:19.664Z,1026.68
2018-04-18T11:56:20.506Z,1026.65
2018-04-18T11:57:19.663Z,1026.63
2018-04-18T11:58:19.670Z,1026.59
2018-04-18T11:59:19.690Z,1026.64
2018-04-18T12:00:19.681Z,1026.62
2018-04-18T12:01:19.701Z,1026.62
2018-04-18T12:02:19.743Z,1026.60
2018-04-18T12:03:19.739Z,1026.60
2018-04-18T12:04:19.745Z,1026.60
2018-04-18T12:05:19.717Z,1026.69
2018-04-18T12:06:20.397Z,1026.57
2018-04-18T12:07:20.376Z,1026.56
2018-04-18T12:08:19.798Z,1026.54
2018-04-18T12:09:19.779Z,1026.56
2018-04-18T12:10:19.847Z,1026.53
2018-04-18T12:11:19.803Z,1026.54
2018-04-18T12:12:21.521Z,1026.59
2018-04-18T12:13:19.944Z,1026.57
2018-04-18T12:14:19.871Z,1026.58
2018-04-18T12:15:20.047Z,1026.57
2018-04-18T12:16:19.908Z,1026.58
2018-04-18T12:17:19.917Z,1026.61
2018-04-18T12:18:19.902Z,1026.54
2018-04-18T12:19:19.911Z,1026.54
2018-04-18T12:20:19.943Z,1026.48
2018-04-18T12:21:20.885Z,1026.50
2018-04-18T12:22:20.024Z,1026.47
2018-04-18T12:23:19.907Z,1026.51
2018-04-18T12:24:20.897Z,1026.47
2018-04-18T12:25:21.383Z,1026.45
2018-04-18T12:26:20.010Z,1026.43